sensor_id;sensor_type;location;lat;lon;timestamp;P1;durP1;ratioP1;P2;durP2;ratioP2
950;SDS011;462;48.758;9.256;2022-11-14T00:01:31;21.47;;;16.73;;
950;SDS011;462;48.758;9.256;2022-11-14T00:09:52;24.77;;;16.80;;
950;SDS011;462;48.758;9.256;2022-11-14T00:18:15;21.10;;;16.93;;
950;SDS011;462;48.758;9.256;2022-11-14T00:26:35;21.80;;;17.33;;
950;SDS011;462;48.758;9.256;2022-11-14T00:34:58;21.47;;;16.30;;
950;SDS011;462;48.758;9.256;2022-11-14T00:43:18;16.47;;;14.70;;
950;SDS011;462;48.758;9.256;2022-11-14T00:51:41;18.87;;;14.70;;
950;SDS011;462;48.758;9.256;2022-11-14T01:00:02;21.87;;;16.40;;
950;SDS011;462;48.758;9.256;2022-11-14T01:08:25;18.90;;;16.17;;
950;SDS011;462;48.758;9.256;2022-11-14T01:16:46;17.60;;;14.80;;
950;SDS011;462;48.758;9.256;2022-11-14T01:25:09;21.47;;;14.90;;
950;SDS011;462;48.758;9.256;2022-11-14T01:33:30;18.40;;;13.83;;
950;SDS011;462;48.758;9.256;2022-11-14T01:41:52;19.87;;;14.93;;
950;SDS011;462;48.758;9.256;2022-11-14T01:50:13;18.23;;;14.70;;
950;SDS011;462;48.758;9.256;2022-11-14T01:58:36;20.63;;;16.00;;
950;SDS011;462;48.758;9.256;2022-11-14T02:07:00;17.90;;;14.43;;
950;SDS011;462;48.758;9.256;2022-11-14T02:15:24;17.67;;;15.50;;
950;SDS011;462;48.758;9.256;2022-11-14T02:23:47;18.43;;;14.60;;
950;SDS011;462;48.758;9.256;2022-11-14T02:32:08;18.93;;;14.40;;
950;SDS011;462;48.758;9.256;2022-11-14T02:40:31;16.73;;;13.57;;
950;SDS011;462;48.758;9.256;2022-11-14T02:48:52;18.37;;;15.37;;
950;SDS011;462;48.758;9.256;2022-11-14T02:57:14;37.20;;;24.50;;
950;SDS011;462;48.758;9.256;2022-11-14T03:05:35;29.50;;;20.50;;
950;SDS011;462;48.758;9.256;2022-11-14T03:13:59;27.67;;;20.37;;
950;SDS011;462;48.758;9.256;2022-11-14T03:22:20;25.47;;;17.77;;
950;SDS011;462;48.758;9.256;2022-11-14T03:30:42;27.80;;;21.77;;
950;SDS011;462;48.758;9.256;2022-11-14T03:39:05;30.63;;;24.23;;
950;SDS011;462;48.758;9.256;2022-11-14T03:47:28;25.17;;;19.50;;
950;SDS011;462;48.758;9.256;2022-11-14T03:55:49;31.90;;;23.40;;
950;SDS011;462;48.758;9.256;2022-11-14T04:04:12;39.00;;;23.03;;
950;SDS011;462;48.758;9.256;2022-11-14T04:12:33;26.17;;;21.60;;
950;SDS011;462;48.758;9.256;2022-11-14T04:20:55;26.87;;;22.07;;
950;SDS011;462;48.758;9.256;2022-11-14T04:29:16;22.93;;;20.30;;
950;SDS011;462;48.758;9.256;2022-11-14T04:37:39;23.43;;;19.33;;
950;SDS011;462;48.758;9.256;2022-11-14T04:46:00;21.20;;;18.87;;
950;SDS011;462;48.758;9.256;2022-11-14T04:54:23;22.50;;;19.10;;
950;SDS011;462;48.758;9.256;2022-11-14T05:02:44;19.13;;;17.10;;
950;SDS011;462;48.758;9.256;2022-11-14T05:11:06;21.27;;;17.93;;
950;SDS011;462;48.758;9.256;2022-11-14T05:19:31;19.63;;;16.80;;
950;SDS011;462;48.758;9.256;2022-11-14T05:27:53;19.97;;;17.43;;
950;SDS011;462;48.758;9.256;2022-11-14T05:36:15;19.97;;;17.83;;
950;SDS011;462;48.758;9.256;2022-11-14T05:44:37;18.87;;;16.87;;
950;SDS011;462;48.758;9.256;2022-11-14T05:52:58;20.67;;;17.90;;
950;SDS011;462;48.758;9.256;2022-11-14T06:01:21;19.80;;;17.20;;
950;SDS011;462;48.758;9.256;2022-11-14T06:09:42;25.60;;;18.00;;
950;SDS011;462;48.758;9.256;2022-11-14T06:18:04;21.10;;;17.83;;
950;SDS011;462;48.758;9.256;2022-11-14T06:26:26;18.03;;;16.07;;
950;SDS011;462;48.758;9.256;2022-11-14T06:34:50;17.43;;;15.70;;
950;SDS011;462;48.758;9.256;2022-11-14T06:43:11;13.97;;;11.27;;
950;SDS011;462;48.758;9.256;2022-11-14T06:51:33;13.70;;;11.03;;
950;SDS011;462;48.758;9.256;2022-11-14T06:59:54;13.53;;;9.80;;
950;SDS011;462;48.758;9.256;2022-11-14T07:08:16;12.63;;;11.40;;
950;SDS011;462;48.758;9.256;2022-11-14T07:16:37;13.20;;;11.80;;
950;SDS011;462;48.758;9.256;2022-11-14T07:25:00;12.53;;;11.23;;
950;SDS011;462;48.758;9.256;2022-11-14T07:33:21;14.87;;;13.40;;
950;SDS011;462;48.758;9.256;2022-11-14T07:41:43;14.77;;;13.23;;
950;SDS011;462;48.758;9.256;2022-11-14T07:50:04;13.17;;;11.30;;
950;SDS011;462;48.758;9.256;2022-11-14T07:58:27;13.40;;;11.20;;
950;SDS011;462;48.758;9.256;2022-11-14T08:06:48;18.13;;;13.73;;
950;SDS011;462;48.758;9.256;2022-11-14T08:15:12;14.27;;;12.77;;
950;SDS011;462;48.758;9.256;2022-11-14T08:23:33;17.07;;;15.27;;
950;SDS011;462;48.758;9.256;2022-11-14T08:31:55;22.80;;;18.50;;
950;SDS011;462;48.758;9.256;2022-11-14T08:40:17;20.27;;;17.83;;
950;SDS011;462;48.758;9.256;2022-11-14T08:48:39;20.40;;;18.30;;
950;SDS011;462;48.758;9.256;2022-11-14T08:57:00;20.03;;;17.40;;
950;SDS011;462;48.758;9.256;2022-11-14T09:05:23;19.90;;;16.93;;
950;SDS011;462;48.758;9.256;2022-11-14T09:13:45;15.57;;;13.90;;
950;SDS011;462;48.758;9.256;2022-11-14T09:22:07;14.77;;;13.30;;
950;SDS011;462;48.758;9.256;2022-11-14T09:30:28;17.90;;;15.60;;
950;SDS011;462;48.758;9.256;2022-11-14T09:38:51;19.40;;;14.30;;
950;SDS011;462;48.758;9.256;2022-11-14T09:47:15;13.53;;;12.17;;
950;SDS011;462;48.758;9.256;2022-11-14T09:55:40;13.37;;;12.00;;
950;SDS011;462;48.758;9.256;2022-11-14T10:04:08;11.20;;;10.07;;
950;SDS011;462;48.758;9.256;2022-11-14T10:12:39;10.57;;;9.57;;
950;SDS011;462;48.758;9.256;2022-11-14T10:21:20;12.03;;;10.87;;
950;SDS011;462;48.758;9.256;2022-11-14T10:29:53;13.87;;;12.47;;
950;SDS011;462;48.758;9.256;2022-11-14T10:38:27;12.00;;;10.70;;
950;SDS011;462;48.758;9.256;2022-11-14T10:46:53;10.23;;;8.73;;
950;SDS011;462;48.758;9.256;2022-11-14T10:55:17;10.70;;;8.70;;
950;SDS011;462;48.758;9.256;2022-11-14T11:03:42;8.57;;;7.77;;
950;SDS011;462;48.758;9.256;2022-11-14T11:12:03;7.40;;;5.90;;
950;SDS011;462;48.758;9.256;2022-11-14T11:20:31;5.80;;;5.30;;
950;SDS011;462;48.758;9.256;2022-11-14T11:29:00;7.67;;;5.00;;
950;SDS011;462;48.758;9.256;2022-11-14T11:37:25;4.90;;;4.43;;
950;SDS011;462;48.758;9.256;2022-11-14T11:45:47;4.30;;;3.90;;
950;SDS011;462;48.758;9.256;2022-11-14T11:54:12;7.10;;;4.30;;
950;SDS011;462;48.758;9.256;2022-11-14T12:02:35;5.60;;;4.97;;
950;SDS011;462;48.758;9.256;2022-11-14T12:11:00;4.33;;;3.93;;
950;SDS011;462;48.758;9.256;2022-11-14T12:19:25;2.90;;;2.70;;
950;SDS011;462;48.758;9.256;2022-11-14T12:36:45;2.60;;;2.00;;
950;SDS011;462;48.758;9.256;2022-11-14T12:54:02;2.47;;;1.90;;
950;SDS011;462;48.758;9.256;2022-11-14T13:02:27;2.10;;;1.90;;
950;SDS011;462;48.758;9.256;2022-11-14T13:10:58;2.00;;;1.80;;
950;SDS011;462;48.758;9.256;2022-11-14T13:19:19;2.30;;;2.10;;
950;SDS011;462;48.758;9.256;2022-11-14T13:28:13;2.00;;;1.77;;
950;SDS011;462;48.758;9.256;2022-11-14T13:37:09;2.20;;;2.00;;
950;SDS011;462;48.758;9.256;2022-11-14T13:54:21;2.13;;;2.03;;
950;SDS011;462;48.758;9.256;2022-11-14T14:02:50;2.33;;;2.13;;
950;SDS011;462;48.758;9.256;2022-11-14T14:11:24;2.07;;;1.87;;
950;SDS011;462;48.758;9.256;2022-11-14T14:19:58;2.50;;;2.30;;
950;SDS011;462;48.758;9.256;2022-11-14T14:28:38;2.17;;;1.90;;
950;SDS011;462;48.758;9.256;2022-11-14T14:37:12;2.20;;;2.00;;
950;SDS011;462;48.758;9.256;2022-11-14T14:45:43;3.77;;;3.47;;
950;SDS011;462;48.758;9.256;2022-11-14T14:54:18;7.00;;;5.10;;
950;SDS011;462;48.758;9.256;2022-11-14T15:02:40;4.73;;;4.10;;
950;SDS011;462;48.758;9.256;2022-11-14T15:11:07;13.63;;;12.33;;
950;SDS011;462;48.758;9.256;2022-11-14T15:19:31;4.37;;;3.77;;
950;SDS011;462;48.758;9.256;2022-11-14T15:27:58;4.40;;;4.00;;
950;SDS011;462;48.758;9.256;2022-11-14T15:36:20;4.70;;;3.30;;
950;SDS011;462;48.758;9.256;2022-11-14T15:44:42;3.73;;;3.20;;
950;SDS011;462;48.758;9.256;2022-11-14T15:53:04;6.80;;;5.97;;
950;SDS011;462;48.758;9.256;2022-11-14T16:01:35;6.00;;;3.90;;
950;SDS011;462;48.758;9.256;2022-11-14T16:09:56;8.53;;;5.20;;
950;SDS011;462;48.758;9.256;2022-11-14T16:18:18;5.63;;;4.47;;
950;SDS011;462;48.758;9.256;2022-11-14T16:26:39;7.07;;;5.00;;
950;SDS011;462;48.758;9.256;2022-11-14T16:35:02;39.07;;;28.27;;
950;SDS011;462;48.758;9.256;2022-11-14T16:43:24;6.30;;;5.70;;
950;SDS011;462;48.758;9.256;2022-11-14T16:51:47;4.90;;;3.60;;
950;SDS011;462;48.758;9.256;2022-11-14T17:00:10;5.00;;;4.50;;
950;SDS011;462;48.758;9.256;2022-11-14T17:08:33;7.13;;;6.27;;
950;SDS011;462;48.758;9.256;2022-11-14T17:16:54;58.50;;;24.37;;
950;SDS011;462;48.758;9.256;2022-11-14T17:25:17;21.23;;;15.83;;
950;SDS011;462;48.758;9.256;2022-11-14T17:33:38;11.50;;;10.27;;
950;SDS011;462;48.758;9.256;2022-11-14T17:42:01;14.10;;;11.30;;
950;SDS011;462;48.758;9.256;2022-11-14T17:50:23;8.50;;;6.83;;
950;SDS011;462;48.758;9.256;2022-11-14T17:58:45;8.00;;;6.10;;
950;SDS011;462;48.758;9.256;2022-11-14T18:07:07;7.77;;;6.97;;
950;SDS011;462;48.758;9.256;2022-11-14T18:15:30;8.50;;;7.67;;
950;SDS011;462;48.758;9.256;2022-11-14T18:23:51;7.30;;;6.60;;
950;SDS011;462;48.758;9.256;2022-11-14T18:32:15;7.57;;;6.87;;
950;SDS011;462;48.758;9.256;2022-11-14T18:40:37;8.63;;;7.73;;
950;SDS011;462;48.758;9.256;2022-11-14T18:48:59;12.33;;;9.03;;
950;SDS011;462;48.758;9.256;2022-11-14T18:57:20;8.00;;;7.27;;
950;SDS011;462;48.758;9.256;2022-11-14T19:05:43;10.90;;;9.30;;
950;SDS011;462;48.758;9.256;2022-11-14T19:14:04;13.13;;;10.40;;
950;SDS011;462;48.758;9.256;2022-11-14T19:22:27;14.23;;;10.47;;
950;SDS011;462;48.758;9.256;2022-11-14T19:30:48;8.90;;;8.00;;
950;SDS011;462;48.758;9.256;2022-11-14T19:39:10;9.90;;;7.20;;
950;SDS011;462;48.758;9.256;2022-11-14T19:47:31;7.57;;;6.83;;
950;SDS011;462;48.758;9.256;2022-11-14T19:55:58;15.50;;;13.97;;
950;SDS011;462;48.758;9.256;2022-11-14T20:04:20;11.03;;;8.93;;
950;SDS011;462;48.758;9.256;2022-11-14T20:12:43;15.53;;;12.40;;
950;SDS011;462;48.758;9.256;2022-11-14T20:21:04;11.90;;;10.80;;
950;SDS011;462;48.758;9.256;2022-11-14T20:29:29;10.43;;;9.33;;
950;SDS011;462;48.758;9.256;2022-11-14T20:37:50;9.13;;;8.10;;
950;SDS011;462;48.758;9.256;2022-11-14T20:46:13;10.80;;;9.80;;
950;SDS011;462;48.758;9.256;2022-11-14T20:54:35;12.53;;;10.57;;
950;SDS011;462;48.758;9.256;2022-11-14T21:02:58;12.07;;;9.80;;
950;SDS011;462;48.758;9.256;2022-11-14T21:11:20;11.77;;;10.57;;
950;SDS011;462;48.758;9.256;2022-11-14T21:19:42;9.87;;;8.87;;
950;SDS011;462;48.758;9.256;2022-11-14T21:28:03;10.57;;;9.47;;
950;SDS011;462;48.758;9.256;2022-11-14T21:36:26;9.60;;;8.70;;
950;SDS011;462;48.758;9.256;2022-11-14T21:44:48;11.33;;;10.17;;
950;SDS011;462;48.758;9.256;2022-11-14T21:53:13;12.20;;;9.93;;
950;SDS011;462;48.758;9.256;2022-11-14T22:01:34;10.93;;;9.97;;
950;SDS011;462;48.758;9.256;2022-11-14T22:10:14;10.50;;;9.47;;
950;SDS011;462;48.758;9.256;2022-11-14T22:18:36;11.00;;;9.93;;
950;SDS011;462;48.758;9.256;2022-11-14T22:26:58;14.43;;;12.93;;
950;SDS011;462;48.758;9.256;2022-11-14T22:35:19;9.80;;;8.80;;
950;SDS011;462;48.758;9.256;2022-11-14T22:43:41;11.43;;;10.30;;
950;SDS011;462;48.758;9.256;2022-11-14T22:52:03;13.13;;;10.40;;
950;SDS011;462;48.758;9.256;2022-11-14T23:00:25;15.40;;;13.43;;
950;SDS011;462;48.758;9.256;2022-11-14T23:08:46;12.53;;;11.10;;
950;SDS011;462;48.758;9.256;2022-11-14T23:17:08;9.90;;;9.00;;
950;SDS011;462;48.758;9.256;2022-11-14T23:25:29;7.67;;;6.80;;
950;SDS011;462;48.758;9.256;2022-11-14T23:33:52;11.53;;;9.17;;
950;SDS011;462;48.758;9.256;2022-11-14T23:42:15;10.07;;;9.07;;
950;SDS011;462;48.758;9.256;2022-11-14T23:50:37;13.40;;;8.60;;
950;SDS011;462;48.758;9.256;2022-11-14T23:58:58;9.83;;;8.60;;
